sensor_id;sensor_type;location;lat;lon;timestamp;P1;durP1;ratioP1;P2;durP2;ratioP2
59520;SDS011;54898;40.918;14.476;2022-07-10T00:01:49;2.95;;;1.30;;
59520;SDS011;54898;40.918;14.476;2022-07-10T00:04:15;2.42;;;1.60;;
59520;SDS011;54898;40.918;14.476;2022-07-10T00:06:42;2.08;;;1.42;;
59520;SDS011;54898;40.918;14.476;2022-07-10T00:09:12;3.55;;;1.20;;
59520;SDS011;54898;40.918;14.476;2022-07-10T00:11:39;5.43;;;1.40;;
59520;SDS011;54898;40.918;14.476;2022-07-10T00:14:07;1.95;;;1.20;;
59520;SDS011;54898;40.918;14.476;2022-07-10T00:16:34;3.78;;;1.38;;
59520;SDS011;54898;40.918;14.476;2022-07-10T00:19:01;4.90;;;1.23;;
59520;SDS011;54898;40.918;14.476;2022-07-10T00:21:27;4.50;;;1.40;;
59520;SDS011;54898;40.918;14.476;2022-07-10T00:23:54;3.15;;;1.35;;
59520;SDS011;54898;40.918;14.476;2022-07-10T00:26:21;5.05;;;1.42;;
59520;SDS011;54898;40.918;14.476;2022-07-10T00:28:47;4.28;;;1.30;;
59520;SDS011;54898;40.918;14.476;2022-07-10T00:31:15;3.58;;;1.08;;
59520;SDS011;54898;40.918;14.476;2022-07-10T00:33:42;4.07;;;1.10;;
59520;SDS011;54898;40.918;14.476;2022-07-10T00:36:09;5.40;;;1.20;;
59520;SDS011;54898;40.918;14.476;2022-07-10T00:38:36;3.05;;;1.23;;
59520;SDS011;54898;40.918;14.476;2022-07-10T00:41:02;2.10;;;1.27;;
59520;SDS011;54898;40.918;14.476;2022-07-10T00:43:30;3.15;;;1.48;;
59520;SDS011;54898;40.918;14.476;2022-07-10T00:45:56;2.25;;;1.27;;
59520;SDS011;54898;40.918;14.476;2022-07-10T00:48:24;2.90;;;1.30;;
59520;SDS011;54898;40.918;14.476;2022-07-10T00:50:51;4.35;;;1.30;;
59520;SDS011;54898;40.918;14.476;2022-07-10T00:53:18;2.50;;;1.08;;
59520;SDS011;54898;40.918;14.476;2022-07-10T00:55:44;3.65;;;1.35;;
59520;SDS011;54898;40.918;14.476;2022-07-10T00:58:11;4.97;;;1.50;;
59520;SDS011;54898;40.918;14.476;2022-07-10T01:00:39;3.85;;;1.30;;
59520;SDS011;54898;40.918;14.476;2022-07-10T01:03:07;1.63;;;1.10;;
59520;SDS011;54898;40.918;14.476;2022-07-10T01:05:35;2.17;;;1.25;;
59520;SDS011;54898;40.918;14.476;2022-07-10T01:08:03;9.02;;;1.38;;
59520;SDS011;54898;40.918;14.476;2022-07-10T01:10:30;4.22;;;1.48;;
59520;SDS011;54898;40.918;14.476;2022-07-10T01:12:57;3.05;;;1.23;;
59520;SDS011;54898;40.918;14.476;2022-07-10T01:15:24;2.55;;;1.23;;
59520;SDS011;54898;40.918;14.476;2022-07-10T01:17:51;2.45;;;1.17;;
59520;SDS011;54898;40.918;14.476;2022-07-10T01:20:19;3.03;;;1.30;;
59520;SDS011;54898;40.918;14.476;2022-07-10T01:22:47;3.85;;;1.30;;
59520;SDS011;54898;40.918;14.476;2022-07-10T01:25:14;3.38;;;1.20;;
59520;SDS011;54898;40.918;14.476;2022-07-10T01:27:41;3.58;;;1.45;;
59520;SDS011;54898;40.918;14.476;2022-07-10T01:30:08;2.03;;;1.20;;
59520;SDS011;54898;40.918;14.476;2022-07-10T01:32:36;2.53;;;1.05;;
59520;SDS011;54898;40.918;14.476;2022-07-10T01:35:04;5.55;;;1.40;;
59520;SDS011;54898;40.918;14.476;2022-07-10T01:37:31;4.32;;;1.20;;
59520;SDS011;54898;40.918;14.476;2022-07-10T01:39:59;4.40;;;1.20;;
59520;SDS011;54898;40.918;14.476;2022-07-10T01:42:26;2.63;;;1.30;;
59520;SDS011;54898;40.918;14.476;2022-07-10T01:44:52;2.85;;;0.98;;
59520;SDS011;54898;40.918;14.476;2022-07-10T01:47:19;2.42;;;1.17;;
59520;SDS011;54898;40.918;14.476;2022-07-10T01:49:50;1.90;;;1.05;;
59520;SDS011;54898;40.918;14.476;2022-07-10T01:52:17;4.45;;;1.45;;
59520;SDS011;54898;40.918;14.476;2022-07-10T01:54:43;6.03;;;1.40;;
59520;SDS011;54898;40.918;14.476;2022-07-10T01:57:12;2.28;;;1.20;;
59520;SDS011;54898;40.918;14.476;2022-07-10T01:59:39;2.30;;;1.20;;
59520;SDS011;54898;40.918;14.476;2022-07-10T02:02:07;4.70;;;1.30;;
59520;SDS011;54898;40.918;14.476;2022-07-10T02:04:34;2.85;;;1.42;;
59520;SDS011;54898;40.918;14.476;2022-07-10T02:07:07;2.28;;;1.27;;
59520;SDS011;54898;40.918;14.476;2022-07-10T02:09:33;4.60;;;1.10;;
59520;SDS011;54898;40.918;14.476;2022-07-10T02:12:00;3.15;;;1.40;;
59520;SDS011;54898;40.918;14.476;2022-07-10T02:14:28;3.13;;;1.30;;
59520;SDS011;54898;40.918;14.476;2022-07-10T02:16:55;4.80;;;1.50;;
59520;SDS011;54898;40.918;14.476;2022-07-10T02:19:22;3.25;;;1.23;;
59520;SDS011;54898;40.918;14.476;2022-07-10T02:21:48;2.90;;;1.38;;
59520;SDS011;54898;40.918;14.476;2022-07-10T02:24:15;4.30;;;1.10;;
59520;SDS011;54898;40.918;14.476;2022-07-10T02:26:42;5.30;;;1.52;;
59520;SDS011;54898;40.918;14.476;2022-07-10T02:29:09;5.63;;;1.30;;
59520;SDS011;54898;40.918;14.476;2022-07-10T02:31:37;2.42;;;1.23;;
59520;SDS011;54898;40.918;14.476;2022-07-10T02:34:06;3.63;;;1.30;;
59520;SDS011;54898;40.918;14.476;2022-07-10T02:36:33;4.28;;;1.73;;
59520;SDS011;54898;40.918;14.476;2022-07-10T02:39:00;5.07;;;1.65;;
59520;SDS011;54898;40.918;14.476;2022-07-10T02:41:27;4.07;;;1.30;;
59520;SDS011;54898;40.918;14.476;2022-07-10T02:43:54;5.35;;;2.00;;
59520;SDS011;54898;40.918;14.476;2022-07-10T02:46:21;4.20;;;2.13;;
59520;SDS011;54898;40.918;14.476;2022-07-10T02:48:49;9.73;;;2.42;;
59520;SDS011;54898;40.918;14.476;2022-07-10T02:51:15;4.90;;;2.20;;
59520;SDS011;54898;40.918;14.476;2022-07-10T02:53:42;5.07;;;2.45;;
59520;SDS011;54898;40.918;14.476;2022-07-10T02:56:09;3.65;;;2.28;;
59520;SDS011;54898;40.918;14.476;2022-07-10T02:58:37;7.28;;;2.50;;
59520;SDS011;54898;40.918;14.476;2022-07-10T03:01:04;4.05;;;2.17;;
59520;SDS011;54898;40.918;14.476;2022-07-10T03:03:31;5.15;;;2.40;;
59520;SDS011;54898;40.918;14.476;2022-07-10T03:05:59;9.50;;;2.22;;
59520;SDS011;54898;40.918;14.476;2022-07-10T03:08:26;5.72;;;2.30;;
59520;SDS011;54898;40.918;14.476;2022-07-10T03:10:53;4.13;;;2.10;;
59520;SDS011;54898;40.918;14.476;2022-07-10T03:13:19;9.32;;;2.00;;
59520;SDS011;54898;40.918;14.476;2022-07-10T03:15:46;4.30;;;1.90;;
59520;SDS011;54898;40.918;14.476;2022-07-10T03:18:13;3.70;;;1.80;;
59520;SDS011;54898;40.918;14.476;2022-07-10T03:20:41;4.35;;;2.28;;
59520;SDS011;54898;40.918;14.476;2022-07-10T03:23:09;4.43;;;1.70;;
59520;SDS011;54898;40.918;14.476;2022-07-10T03:25:36;5.20;;;1.90;;
59520;SDS011;54898;40.918;14.476;2022-07-10T03:28:02;2.03;;;1.70;;
59520;SDS011;54898;40.918;14.476;2022-07-10T03:30:29;2.75;;;1.92;;
59520;SDS011;54898;40.918;14.476;2022-07-10T03:32:56;2.78;;;2.05;;
59520;SDS011;54898;40.918;14.476;2022-07-10T03:35:23;4.53;;;1.80;;
59520;SDS011;54898;40.918;14.476;2022-07-10T03:37:51;6.70;;;2.42;;
59520;SDS011;54898;40.918;14.476;2022-07-10T03:40:19;8.27;;;2.85;;
59520;SDS011;54898;40.918;14.476;2022-07-10T03:42:46;4.72;;;2.67;;
59520;SDS011;54898;40.918;14.476;2022-07-10T03:45:13;6.93;;;2.05;;
59520;SDS011;54898;40.918;14.476;2022-07-10T03:47:40;5.38;;;3.25;;
59520;SDS011;54898;40.918;14.476;2022-07-10T03:50:07;4.90;;;2.35;;
59520;SDS011;54898;40.918;14.476;2022-07-10T03:52:35;8.32;;;2.45;;
59520;SDS011;54898;40.918;14.476;2022-07-10T03:55:02;4.25;;;1.98;;
59520;SDS011;54898;40.918;14.476;2022-07-10T06:39:07;4.00;;;1.20;;
59520;SDS011;54898;40.918;14.476;2022-07-10T06:41:34;4.13;;;1.48;;
59520;SDS011;54898;40.918;14.476;2022-07-10T06:44:01;4.43;;;1.10;;
59520;SDS011;54898;40.918;14.476;2022-07-10T06:46:28;3.15;;;1.20;;
59520;SDS011;54898;40.918;14.476;2022-07-10T06:48:55;3.50;;;1.30;;
59520;SDS011;54898;40.918;14.476;2022-07-10T06:51:22;3.13;;;1.33;;
59520;SDS011;54898;40.918;14.476;2022-07-10T06:53:49;1.92;;;1.17;;
59520;SDS011;54898;40.918;14.476;2022-07-10T06:56:18;2.17;;;1.20;;
59520;SDS011;54898;40.918;14.476;2022-07-10T06:58:45;5.70;;;1.40;;
59520;SDS011;54898;40.918;14.476;2022-07-10T07:01:11;5.95;;;1.50;;
59520;SDS011;54898;40.918;14.476;2022-07-10T07:03:38;2.92;;;1.50;;
59520;SDS011;54898;40.918;14.476;2022-07-10T07:06:05;4.55;;;1.45;;
59520;SDS011;54898;40.918;14.476;2022-07-10T07:08:32;4.85;;;1.33;;
59520;SDS011;54898;40.918;14.476;2022-07-10T07:11:02;3.63;;;1.30;;
59520;SDS011;54898;40.918;14.476;2022-07-10T07:13:30;4.10;;;1.40;;
59520;SDS011;54898;40.918;14.476;2022-07-10T07:15:57;5.30;;;1.58;;
59520;SDS011;54898;40.918;14.476;2022-07-10T07:18:31;3.83;;;1.95;;
59520;SDS011;54898;40.918;14.476;2022-07-10T07:20:58;3.65;;;1.40;;
59520;SDS011;54898;40.918;14.476;2022-07-10T07:23:43;3.42;;;1.67;;
59520;SDS011;54898;40.918;14.476;2022-07-10T07:26:10;4.28;;;1.67;;
59520;SDS011;54898;40.918;14.476;2022-07-10T07:28:38;3.75;;;1.48;;
59520;SDS011;54898;40.918;14.476;2022-07-10T07:31:05;2.13;;;1.50;;
59520;SDS011;54898;40.918;14.476;2022-07-10T07:33:32;3.58;;;1.60;;
59520;SDS011;54898;40.918;14.476;2022-07-10T07:35:59;2.53;;;1.60;;
59520;SDS011;54898;40.918;14.476;2022-07-10T07:38:25;2.50;;;1.40;;
59520;SDS011;54898;40.918;14.476;2022-07-10T07:40:52;3.80;;;1.55;;
59520;SDS011;54898;40.918;14.476;2022-07-10T07:43:19;4.90;;;1.65;;
59520;SDS011;54898;40.918;14.476;2022-07-10T07:45:47;3.17;;;1.40;;
59520;SDS011;54898;40.918;14.476;2022-07-10T07:48:14;3.17;;;1.50;;
59520;SDS011;54898;40.918;14.476;2022-07-10T07:50:41;5.55;;;1.52;;
59520;SDS011;54898;40.918;14.476;2022-07-10T07:53:08;15.98;;;1.70;;
59520;SDS011;54898;40.918;14.476;2022-07-10T07:55:35;6.15;;;1.95;;
59520;SDS011;54898;40.918;14.476;2022-07-10T07:58:02;6.90;;;2.08;;
59520;SDS011;54898;40.918;14.476;2022-07-10T08:00:29;7.00;;;1.70;;
59520;SDS011;54898;40.918;14.476;2022-07-10T08:02:58;8.48;;;1.88;;
59520;SDS011;54898;40.918;14.476;2022-07-10T08:05:26;7.47;;;1.58;;
59520;SDS011;54898;40.918;14.476;2022-07-10T08:07:54;7.47;;;1.52;;
59520;SDS011;54898;40.918;14.476;2022-07-10T08:10:22;6.07;;;1.60;;
59520;SDS011;54898;40.918;14.476;2022-07-10T08:12:51;5.25;;;1.40;;
59520;SDS011;54898;40.918;14.476;2022-07-10T08:15:19;4.68;;;1.50;;
59520;SDS011;54898;40.918;14.476;2022-07-10T08:17:50;7.85;;;1.58;;
59520;SDS011;54898;40.918;14.476;2022-07-10T08:20:20;6.03;;;2.08;;
59520;SDS011;54898;40.918;14.476;2022-07-10T08:22:47;3.72;;;1.70;;
59520;SDS011;54898;40.918;14.476;2022-07-10T08:25:14;3.80;;;1.50;;
59520;SDS011;54898;40.918;14.476;2022-07-10T08:27:41;1.98;;;1.60;;
59520;SDS011;54898;40.918;14.476;2022-07-10T08:30:09;4.40;;;1.80;;
59520;SDS011;54898;40.918;14.476;2022-07-10T08:32:36;3.53;;;1.57;;
59520;SDS011;54898;40.918;14.476;2022-07-10T08:35:03;3.83;;;1.50;;
59520;SDS011;54898;40.918;14.476;2022-07-10T08:37:38;2.92;;;1.35;;
59520;SDS011;54898;40.918;14.476;2022-07-10T08:40:05;2.03;;;1.58;;
59520;SDS011;54898;40.918;14.476;2022-07-10T08:42:34;2.90;;;1.55;;
59520;SDS011;54898;40.918;14.476;2022-07-10T08:45:01;5.13;;;1.50;;
59520;SDS011;54898;40.918;14.476;2022-07-10T08:47:28;1.90;;;1.40;;
59520;SDS011;54898;40.918;14.476;2022-07-10T08:49:57;3.13;;;1.52;;
59520;SDS011;54898;40.918;14.476;2022-07-10T08:52:25;3.60;;;1.50;;
59520;SDS011;54898;40.918;14.476;2022-07-10T08:54:54;3.20;;;1.45;;
59520;SDS011;54898;40.918;14.476;2022-07-10T08:57:22;2.58;;;1.45;;
59520;SDS011;54898;40.918;14.476;2022-07-10T08:59:49;4.78;;;1.40;;
59520;SDS011;54898;40.918;14.476;2022-07-10T09:02:16;5.93;;;1.70;;
59520;SDS011;54898;40.918;14.476;2022-07-10T09:04:43;6.13;;;1.83;;
59520;SDS011;54898;40.918;14.476;2022-07-10T09:07:10;3.60;;;1.65;;
59520;SDS011;54898;40.918;14.476;2022-07-10T09:09:50;6.68;;;1.60;;
59520;SDS011;54898;40.918;14.476;2022-07-10T09:12:18;4.70;;;1.27;;
59520;SDS011;54898;40.918;14.476;2022-07-10T09:14:45;1.67;;;1.33;;
59520;SDS011;54898;40.918;14.476;2022-07-10T09:17:12;2.65;;;1.55;;
59520;SDS011;54898;40.918;14.476;2022-07-10T09:19:39;1.50;;;1.40;;
59520;SDS011;54898;40.918;14.476;2022-07-10T09:22:06;3.63;;;1.52;;
59520;SDS011;54898;40.918;14.476;2022-07-10T09:24:37;3.58;;;1.40;;
59520;SDS011;54898;40.918;14.476;2022-07-10T09:27:04;3.97;;;1.55;;
59520;SDS011;54898;40.918;14.476;2022-07-10T09:29:43;2.70;;;1.75;;
59520;SDS011;54898;40.918;14.476;2022-07-10T09:32:12;3.70;;;1.77;;
59520;SDS011;54898;40.918;14.476;2022-07-10T09:34:39;3.13;;;1.80;;
59520;SDS011;54898;40.918;14.476;2022-07-10T09:37:18;5.00;;;2.35;;
59520;SDS011;54898;40.918;14.476;2022-07-10T09:39:52;2.50;;;1.45;;
59520;SDS011;54898;40.918;14.476;2022-07-10T09:42:24;3.70;;;1.50;;
59520;SDS011;54898;40.918;14.476;2022-07-10T09:44:53;4.30;;;1.50;;
59520;SDS011;54898;40.918;14.476;2022-07-10T09:47:39;5.97;;;1.55;;
59520;SDS011;54898;40.918;14.476;2022-07-10T09:50:08;1.80;;;1.40;;
59520;SDS011;54898;40.918;14.476;2022-07-10T09:52:46;2.72;;;1.55;;
59520;SDS011;54898;40.918;14.476;2022-07-10T09:55:15;3.05;;;1.42;;
59520;SDS011;54898;40.918;14.476;2022-07-10T09:57:44;2.60;;;1.45;;
59520;SDS011;54898;40.918;14.476;2022-07-10T10:00:20;3.67;;;1.40;;
59520;SDS011;54898;40.918;14.476;2022-07-10T10:02:52;1.50;;;1.30;;
59520;SDS011;54898;40.918;14.476;2022-07-10T10:05:21;4.05;;;1.52;;
59520;SDS011;54898;40.918;14.476;2022-07-10T10:08:04;5.13;;;1.58;;
59520;SDS011;54898;40.918;14.476;2022-07-10T10:10:37;2.50;;;1.40;;
59520;SDS011;54898;40.918;14.476;2022-07-10T10:13:07;4.25;;;1.48;;
59520;SDS011;54898;40.918;14.476;2022-07-10T10:15:38;2.72;;;1.40;;
59520;SDS011;54898;40.918;14.476;2022-07-10T10:20:32;3.55;;;1.40;;
59520;SDS011;54898;40.918;14.476;2022-07-10T10:23:09;3.08;;;1.45;;
59520;SDS011;54898;40.918;14.476;2022-07-10T10:25:37;2.85;;;1.40;;
59520;SDS011;54898;40.918;14.476;2022-07-10T10:28:05;3.08;;;1.35;;
59520;SDS011;54898;40.918;14.476;2022-07-10T10:30:32;3.83;;;1.42;;
59520;SDS011;54898;40.918;14.476;2022-07-10T10:33:04;2.30;;;1.30;;
59520;SDS011;54898;40.918;14.476;2022-07-10T10:35:46;2.42;;;1.60;;
59520;SDS011;54898;40.918;14.476;2022-07-10T10:38:13;5.15;;;1.60;;
59520;SDS011;54898;40.918;14.476;2022-07-10T10:40:41;3.83;;;1.10;;
59520;SDS011;54898;40.918;14.476;2022-07-10T10:43:17;5.18;;;1.40;;
59520;SDS011;54898;40.918;14.476;2022-07-10T10:45:45;4.97;;;1.90;;
59520;SDS011;54898;40.918;14.476;2022-07-10T10:48:14;4.40;;;1.38;;
59520;SDS011;54898;40.918;14.476;2022-07-10T10:50:42;3.53;;;1.30;;
59520;SDS011;54898;40.918;14.476;2022-07-10T10:53:13;5.15;;;1.38;;
59520;SDS011;54898;40.918;14.476;2022-07-10T10:58:39;3.35;;;1.35;;
59520;SDS011;54898;40.918;14.476;2022-07-10T11:01:23;4.47;;;1.92;;
59520;SDS011;54898;40.918;14.476;2022-07-10T11:06:41;9.55;;;1.67;;
59520;SDS011;54898;40.918;14.476;2022-07-10T11:09:21;2.03;;;1.23;;
59520;SDS011;54898;40.918;14.476;2022-07-10T11:11:57;4.50;;;1.40;;
59520;SDS011;54898;40.918;14.476;2022-07-10T11:14:27;3.60;;;1.40;;
59520;SDS011;54898;40.918;14.476;2022-07-10T11:16:54;3.35;;;1.30;;
59520;SDS011;54898;40.918;14.476;2022-07-10T11:19:23;3.05;;;1.70;;
59520;SDS011;54898;40.918;14.476;2022-07-10T11:21:56;5.32;;;1.40;;
59520;SDS011;54898;40.918;14.476;2022-07-10T11:24:33;3.05;;;1.10;;
59520;SDS011;54898;40.918;14.476;2022-07-10T11:27:12;2.65;;;1.50;;
59520;SDS011;54898;40.918;14.476;2022-07-10T11:29:56;2.80;;;1.13;;
59520;SDS011;54898;40.918;14.476;2022-07-10T11:32:23;3.63;;;1.33;;
59520;SDS011;54898;40.918;14.476;2022-07-10T11:34:51;7.35;;;1.42;;
59520;SDS011;54898;40.918;14.476;2022-07-10T11:37:18;5.57;;;1.58;;
59520;SDS011;54898;40.918;14.476;2022-07-10T11:39:46;3.13;;;1.40;;
59520;SDS011;54898;40.918;14.476;2022-07-10T11:42:13;3.08;;;1.00;;
59520;SDS011;54898;40.918;14.476;2022-07-10T11:44:39;6.30;;;1.58;;
59520;SDS011;54898;40.918;14.476;2022-07-10T11:47:06;2.97;;;1.23;;
59520;SDS011;54898;40.918;14.476;2022-07-10T11:49:33;1.58;;;1.30;;
59520;SDS011;54898;40.918;14.476;2022-07-10T11:52:03;2.40;;;1.10;;
59520;SDS011;54898;40.918;14.476;2022-07-10T11:54:30;1.58;;;1.10;;
59520;SDS011;54898;40.918;14.476;2022-07-10T11:57:04;1.85;;;1.10;;
59520;SDS011;54898;40.918;14.476;2022-07-10T11:59:31;2.97;;;1.30;;
59520;SDS011;54898;40.918;14.476;2022-07-10T12:01:57;1.67;;;1.20;;
59520;SDS011;54898;40.918;14.476;2022-07-10T12:04:24;3.08;;;1.15;;
59520;SDS011;54898;40.918;14.476;2022-07-10T12:06:52;1.35;;;1.10;;
59520;SDS011;54898;40.918;14.476;2022-07-10T12:09:21;2.15;;;1.08;;
59520;SDS011;54898;40.918;14.476;2022-07-10T12:11:57;2.30;;;1.02;;
59520;SDS011;54898;40.918;14.476;2022-07-10T12:14:25;1.15;;;0.93;;
59520;SDS011;54898;40.918;14.476;2022-07-10T12:16:53;2.08;;;1.20;;
59520;SDS011;54898;40.918;14.476;2022-07-10T12:19:21;1.90;;;1.20;;
59520;SDS011;54898;40.918;14.476;2022-07-10T12:21:50;4.43;;;1.15;;
59520;SDS011;54898;40.918;14.476;2022-07-10T12:24:18;1.35;;;1.17;;
59520;SDS011;54898;40.918;14.476;2022-07-10T12:26:49;2.97;;;1.20;;
59520;SDS011;54898;40.918;14.476;2022-07-10T12:29:21;1.58;;;1.25;;
59520;SDS011;54898;40.918;14.476;2022-07-10T12:31:49;2.83;;;1.30;;
59520;SDS011;54898;40.918;14.476;2022-07-10T12:34:17;4.90;;;1.10;;
59520;SDS011;54898;40.918;14.476;2022-07-10T12:36:45;3.17;;;1.33;;
59520;SDS011;54898;40.918;14.476;2022-07-10T12:39:13;4.00;;;1.00;;
59520;SDS011;54898;40.918;14.476;2022-07-10T12:44:34;1.58;;;1.13;;
59520;SDS011;54898;40.918;14.476;2022-07-10T12:47:03;2.67;;;1.20;;
59520;SDS011;54898;40.918;14.476;2022-07-10T12:49:50;1.55;;;1.10;;
59520;SDS011;54898;40.918;14.476;2022-07-10T12:52:24;1.38;;;1.00;;
59520;SDS011;54898;40.918;14.476;2022-07-10T12:55:06;3.67;;;1.30;;
59520;SDS011;54898;40.918;14.476;2022-07-10T12:57:47;1.15;;;1.05;;
59520;SDS011;54898;40.918;14.476;2022-07-10T13:00:15;1.92;;;1.10;;
59520;SDS011;54898;40.918;14.476;2022-07-10T13:02:44;4.78;;;1.20;;
59520;SDS011;54898;40.918;14.476;2022-07-10T13:05:25;2.42;;;1.30;;
59520;SDS011;54898;40.918;14.476;2022-07-10T13:08:03;4.57;;;1.30;;
59520;SDS011;54898;40.918;14.476;2022-07-10T13:10:33;1.77;;;1.30;;
59520;SDS011;54898;40.918;14.476;2022-07-10T13:13:01;2.45;;;1.30;;
59520;SDS011;54898;40.918;14.476;2022-07-10T13:15:28;3.00;;;1.00;;
59520;SDS011;54898;40.918;14.476;2022-07-10T13:17:55;1.30;;;1.05;;
59520;SDS011;54898;40.918;14.476;2022-07-10T13:20:22;2.33;;;1.30;;
59520;SDS011;54898;40.918;14.476;2022-07-10T13:22:48;3.00;;;1.20;;
59520;SDS011;54898;40.918;14.476;2022-07-10T13:25:15;3.38;;;1.30;;
59520;SDS011;54898;40.918;14.476;2022-07-10T13:27:41;2.33;;;1.40;;
59520;SDS011;54898;40.918;14.476;2022-07-10T13:30:10;1.60;;;1.10;;
59520;SDS011;54898;40.918;14.476;2022-07-10T13:32:37;2.65;;;1.30;;
59520;SDS011;54898;40.918;14.476;2022-07-10T13:35:04;2.85;;;1.20;;
59520;SDS011;54898;40.918;14.476;2022-07-10T13:37:31;3.08;;;1.50;;
59520;SDS011;54898;40.918;14.476;2022-07-10T13:39:58;1.20;;;1.10;;
59520;SDS011;54898;40.918;14.476;2022-07-10T13:42:25;2.25;;;1.17;;
59520;SDS011;54898;40.918;14.476;2022-07-10T13:44:51;1.17;;;1.05;;
59520;SDS011;54898;40.918;14.476;2022-07-10T13:47:20;5.63;;;1.23;;
59520;SDS011;54898;40.918;14.476;2022-07-10T13:49:47;2.27;;;1.00;;
59520;SDS011;54898;40.918;14.476;2022-07-10T13:52:13;2.78;;;1.30;;
59520;SDS011;54898;40.918;14.476;2022-07-10T13:54:40;1.23;;;1.10;;
59520;SDS011;54898;40.918;14.476;2022-07-10T13:57:07;1.48;;;1.20;;
59520;SDS011;54898;40.918;14.476;2022-07-10T13:59:34;1.67;;;1.40;;
59520;SDS011;54898;40.918;14.476;2022-07-10T14:02:00;4.55;;;1.15;;
59520;SDS011;54898;40.918;14.476;2022-07-10T14:04:29;3.45;;;1.55;;
59520;SDS011;54898;40.918;14.476;2022-07-10T14:06:55;2.58;;;1.25;;
59520;SDS011;54898;40.918;14.476;2022-07-10T14:09:22;1.67;;;1.30;;
59520;SDS011;54898;40.918;14.476;2022-07-10T14:11:50;3.80;;;1.30;;
59520;SDS011;54898;40.918;14.476;2022-07-10T14:14:17;3.67;;;1.35;;
59520;SDS011;54898;40.918;14.476;2022-07-10T14:16:43;14.10;;;1.80;;
59520;SDS011;54898;40.918;14.476;2022-07-10T14:19:10;1.77;;;1.20;;
59520;SDS011;54898;40.918;14.476;2022-07-10T14:21:38;2.67;;;1.15;;
59520;SDS011;54898;40.918;14.476;2022-07-10T14:24:06;3.08;;;1.15;;
59520;SDS011;54898;40.918;14.476;2022-07-10T14:26:32;2.97;;;1.15;;
59520;SDS011;54898;40.918;14.476;2022-07-10T14:29:01;4.03;;;1.15;;
59520;SDS011;54898;40.918;14.476;2022-07-10T14:31:28;2.47;;;1.10;;
59520;SDS011;54898;40.918;14.476;2022-07-10T14:33:55;1.73;;;1.35;;
59520;SDS011;54898;40.918;14.476;2022-07-10T14:36:22;3.13;;;1.48;;
59520;SDS011;54898;40.918;14.476;2022-07-10T14:38:53;3.60;;;1.20;;
59520;SDS011;54898;40.918;14.476;2022-07-10T14:41:20;2.75;;;1.33;;
59520;SDS011;54898;40.918;14.476;2022-07-10T14:43:47;1.77;;;1.00;;
59520;SDS011;54898;40.918;14.476;2022-07-10T14:46:14;3.17;;;1.20;;
59520;SDS011;54898;40.918;14.476;2022-07-10T14:48:41;5.50;;;1.30;;
59520;SDS011;54898;40.918;14.476;2022-07-10T14:51:09;9.30;;;1.30;;
59520;SDS011;54898;40.918;14.476;2022-07-10T14:53:35;1.98;;;1.10;;
59520;SDS011;54898;40.918;14.476;2022-07-10T14:56:04;3.47;;;1.30;;
59520;SDS011;54898;40.918;14.476;2022-07-10T14:58:31;2.17;;;1.10;;
59520;SDS011;54898;40.918;14.476;2022-07-10T15:00:59;5.60;;;1.10;;
59520;SDS011;54898;40.918;14.476;2022-07-10T15:03:26;2.10;;;1.20;;
59520;SDS011;54898;40.918;14.476;2022-07-10T15:05:53;2.17;;;1.20;;
59520;SDS011;54898;40.918;14.476;2022-07-10T15:08:19;2.20;;;1.30;;
59520;SDS011;54898;40.918;14.476;2022-07-10T15:10:46;2.90;;;1.02;;
59520;SDS011;54898;40.918;14.476;2022-07-10T15:13:14;1.38;;;1.27;;
59520;SDS011;54898;40.918;14.476;2022-07-10T15:15:41;2.77;;;1.37;;
59520;SDS011;54898;40.918;14.476;2022-07-10T15:18:08;3.13;;;0.93;;
59520;SDS011;54898;40.918;14.476;2022-07-10T15:20:35;5.55;;;1.50;;
59520;SDS011;54898;40.918;14.476;2022-07-10T15:23:02;4.00;;;1.42;;
59520;SDS011;54898;40.918;14.476;2022-07-10T15:25:29;3.15;;;1.15;;
59520;SDS011;54898;40.918;14.476;2022-07-10T15:27:57;3.13;;;1.20;;
59520;SDS011;54898;40.918;14.476;2022-07-10T15:30:25;4.40;;;1.13;;
59520;SDS011;54898;40.918;14.476;2022-07-10T15:32:51;2.15;;;0.95;;
59520;SDS011;54898;40.918;14.476;2022-07-10T15:35:20;1.88;;;1.13;;
59520;SDS011;54898;40.918;14.476;2022-07-10T15:37:49;1.77;;;1.20;;
59520;SDS011;54898;40.918;14.476;2022-07-10T15:40:16;5.10;;;1.35;;
59520;SDS011;54898;40.918;14.476;2022-07-10T15:42:43;3.13;;;1.33;;
59520;SDS011;54898;40.918;14.476;2022-07-10T15:45:09;2.45;;;1.98;;
59520;SDS011;54898;40.918;14.476;2022-07-10T15:47:38;3.67;;;1.20;;
59520;SDS011;54898;40.918;14.476;2022-07-10T15:50:05;1.67;;;1.38;;
59520;SDS011;54898;40.918;14.476;2022-07-10T15:52:32;6.28;;;1.50;;
59520;SDS011;54898;40.918;14.476;2022-07-10T15:54:59;2.90;;;1.10;;
59520;SDS011;54898;40.918;14.476;2022-07-10T15:57:25;1.50;;;1.20;;
59520;SDS011;54898;40.918;14.476;2022-07-10T15:59:52;1.70;;;1.30;;
59520;SDS011;54898;40.918;14.476;2022-07-10T16:02:19;3.25;;;1.20;;
59520;SDS011;54898;40.918;14.476;2022-07-10T16:04:47;2.15;;;1.27;;
59520;SDS011;54898;40.918;14.476;2022-07-10T16:07:14;2.85;;;1.30;;
59520;SDS011;54898;40.918;14.476;2022-07-10T16:09:40;5.35;;;1.50;;
59520;SDS011;54898;40.918;14.476;2022-07-10T16:12:07;1.95;;;1.20;;
59520;SDS011;54898;40.918;14.476;2022-07-10T16:14:34;13.20;;;2.00;;
59520;SDS011;54898;40.918;14.476;2022-07-10T16:17:01;6.53;;;1.65;;
59520;SDS011;54898;40.918;14.476;2022-07-10T16:19:29;6.80;;;1.50;;
59520;SDS011;54898;40.918;14.476;2022-07-10T16:21:57;4.88;;;1.70;;
59520;SDS011;54898;40.918;14.476;2022-07-10T16:24:24;5.32;;;1.40;;
59520;SDS011;54898;40.918;14.476;2022-07-10T16:26:51;5.95;;;1.60;;
59520;SDS011;54898;40.918;14.476;2022-07-10T16:29:18;5.60;;;1.70;;
59520;SDS011;54898;40.918;14.476;2022-07-10T16:31:45;2.53;;;1.55;;
59520;SDS011;54898;40.918;14.476;2022-07-10T16:34:12;3.75;;;1.50;;
59520;SDS011;54898;40.918;14.476;2022-07-10T16:36:38;7.68;;;2.30;;
59520;SDS011;54898;40.918;14.476;2022-07-10T16:39:06;5.18;;;1.85;;
59520;SDS011;54898;40.918;14.476;2022-07-10T16:41:33;8.50;;;1.80;;
59520;SDS011;54898;40.918;14.476;2022-07-10T16:43:59;2.08;;;1.27;;
59520;SDS011;54898;40.918;14.476;2022-07-10T16:46:26;10.02;;;1.70;;
59520;SDS011;54898;40.918;14.476;2022-07-10T16:48:53;4.57;;;1.55;;
59520;SDS011;54898;40.918;14.476;2022-07-10T16:51:20;11.23;;;1.95;;
59520;SDS011;54898;40.918;14.476;2022-07-10T16:53:48;11.10;;;2.05;;
59520;SDS011;54898;40.918;14.476;2022-07-10T16:56:16;6.43;;;1.75;;
59520;SDS011;54898;40.918;14.476;2022-07-10T16:58:44;4.07;;;1.55;;
59520;SDS011;54898;40.918;14.476;2022-07-10T17:01:12;5.25;;;1.50;;
59520;SDS011;54898;40.918;14.476;2022-07-10T17:03:39;4.45;;;1.60;;
59520;SDS011;54898;40.918;14.476;2022-07-10T17:06:06;3.65;;;1.52;;
59520;SDS011;54898;40.918;14.476;2022-07-10T17:08:32;6.68;;;1.55;;
59520;SDS011;54898;40.918;14.476;2022-07-10T17:10:59;6.63;;;1.67;;
59520;SDS011;54898;40.918;14.476;2022-07-10T17:13:27;8.23;;;3.33;;
59520;SDS011;54898;40.918;14.476;2022-07-10T17:15:54;4.10;;;1.50;;
59520;SDS011;54898;40.918;14.476;2022-07-10T17:18:21;4.00;;;1.58;;
59520;SDS011;54898;40.918;14.476;2022-07-10T17:20:48;9.25;;;1.60;;
59520;SDS011;54898;40.918;14.476;2022-07-10T17:23:16;7.18;;;1.70;;
59520;SDS011;54898;40.918;14.476;2022-07-10T17:25:42;6.20;;;1.65;;
59520;SDS011;54898;40.918;14.476;2022-07-10T17:28:10;4.97;;;1.63;;
59520;SDS011;54898;40.918;14.476;2022-07-10T17:30:39;4.53;;;1.70;;
59520;SDS011;54898;40.918;14.476;2022-07-10T17:33:06;6.15;;;1.50;;